Time;durP1;ratioP1;P1;durP2;ratioP2;P2;SDS_P1;SDS_P2;PMS_P1;PMS_P2;Temp;Humidity;BMP_temperature;BMP_pressure;BME280_temperature;BME280_humidity;BME280_pressure;Samples;Min_cycle;Max_cycle;Signal;HPM_P1;HPM_P2
2022/04/27 00:01:57;;;;;;;11.57;5.63;;;4.40;99.90;;;;;;5038936;28;20041;-88
2022/04/27 00:04:23;;;;;;;16.55;6.63;;;4.40;99.90;;;;;;5047496;28;20440;-88
2022/04/27 00:06:48;;;;;;;12.05;6.45;;;4.30;99.90;;;;;;5046636;28;20123;-88
2022/04/27 00:09:14;;;;;;;12.18;6.55;;;4.30;99.90;;;;;;5032986;28;20134;-88
2022/04/27 00:11:40;;;;;;;11.27;6.35;;;4.30;99.90;;;;;;5032235;28;20029;-88
2022/04/27 00:14:05;;;;;;;12.68;6.32;;;4.30;99.90;;;;;;5034909;28;20048;-88
2022/04/27 00:16:31;;;;;;;12.85;6.95;;;4.20;99.90;;;;;;5037722;28;20037;-87
2022/04/27 00:18:57;;;;;;;13.75;6.18;;;4.20;99.90;;;;;;5048879;28;20128;-88
2022/04/27 00:21:22;;;;;;;14.68;7.63;;;4.20;99.90;;;;;;5030476;28;20120;-89
2022/04/27 00:23:48;;;;;;;11.68;6.70;;;4.20;99.90;;;;;;5048543;28;20103;-88
2022/04/27 00:26:14;;;;;;;10.73;6.18;;;4.10;99.90;;;;;;5048122;28;20041;-89
2022/04/27 00:28:39;;;;;;;15.90;6.90;;;4.00;99.90;;;;;;5047175;28;20052;-89
2022/04/27 00:31:05;;;;;;;12.10;6.72;;;4.00;99.90;;;;;;5048730;28;20137;-88
2022/04/27 00:33:31;;;;;;;15.05;6.97;;;4.00;99.90;;;;;;5033836;28;20504;-88
2022/04/27 00:35:57;;;;;;;11.82;6.60;;;4.00;99.90;;;;;;5045979;28;20045;-87
2022/04/27 00:38:22;;;;;;;12.75;7.13;;;4.00;99.90;;;;;;5033370;28;20550;-88
2022/04/27 00:40:48;;;;;;;14.13;7.30;;;3.90;99.90;;;;;;5030102;28;20386;-89
2022/04/27 00:43:15;;;;;;;13.27;7.22;;;4.00;99.90;;;;;;5034707;28;20102;-88
2022/04/27 00:45:41;;;;;;;15.25;8.00;;;4.00;99.90;;;;;;5017489;28;20044;-88
2022/04/27 00:48:09;;;;;;;13.90;8.23;;;4.00;99.90;;;;;;5048156;28;20084;-88
2022/04/27 00:50:35;;;;;;;15.30;7.72;;;3.90;99.90;;;;;;5031010;28;20053;-88
2022/04/27 00:53:00;;;;;;;14.63;7.60;;;3.90;99.90;;;;;;5047276;28;20060;-87
2022/04/27 00:55:28;;;;;;;16.63;7.32;;;3.90;99.90;;;;;;5029415;28;20144;-88
2022/04/27 00:57:54;;;;;;;13.45;6.82;;;3.90;99.90;;;;;;5047578;28;20041;-88
2022/04/27 01:00:20;;;;;;;14.82;7.25;;;3.90;99.90;;;;;;5047284;28;20053;-88
2022/04/27 01:02:45;;;;;;;14.35;7.65;;;3.90;99.90;;;;;;5047720;28;20079;-88
2022/04/27 01:05:12;;;;;;;14.40;7.40;;;3.80;99.90;;;;;;5045682;28;20455;-88
2022/04/27 01:07:39;;;;;;;12.68;7.35;;;3.80;99.90;;;;;;5047455;28;20044;-88
2022/04/27 01:10:06;;;;;;;14.90;6.70;;;3.80;99.90;;;;;;5062753;28;20049;-88
2022/04/27 01:12:33;;;;;;;13.15;6.90;;;3.80;99.90;;;;;;5025193;28;20051;-88
2022/04/27 01:14:58;;;;;;;13.65;7.00;;;3.80;99.90;;;;;;5048394;28;20055;-88
2022/04/27 01:17:24;;;;;;;12.63;6.75;;;3.70;99.90;;;;;;5058936;28;20049;-88
2022/04/27 01:19:50;;;;;;;14.52;7.50;;;3.70;99.90;;;;;;5054973;28;20079;-88
2022/04/27 01:22:15;;;;;;;15.40;7.75;;;3.70;99.90;;;;;;5035734;28;20041;-88
2022/04/27 01:24:42;;;;;;;16.23;7.75;;;3.70;99.90;;;;;;5031015;28;20040;-88
2022/04/27 01:27:08;;;;;;;14.02;7.82;;;3.70;99.90;;;;;;5053074;28;20045;-88
2022/04/27 01:29:33;;;;;;;13.75;7.78;;;3.70;99.90;;;;;;5047296;28;20055;-87
2022/04/27 01:32:01;;;;;;;13.93;7.35;;;3.70;99.90;;;;;;5032380;28;20033;-88
2022/04/27 01:34:27;;;;;;;12.48;7.22;;;3.60;99.90;;;;;;5048280;28;20049;-88
2022/04/27 01:37:59;;;;;;;15.05;6.68;;;3.50;99.90;;;;;;5030004;28;20049;-88
2022/04/27 01:39:42;;;;;;;16.40;7.40;;;3.40;99.90;;;;;;5040859;28;20041;-88
2022/04/27 01:42:07;;;;;;;14.98;7.65;;;3.30;99.90;;;;;;5044607;28;20096;-88
2022/04/27 01:44:33;;;;;;;13.35;7.50;;;3.30;99.90;;;;;;5046308;28;20045;-88
2022/04/27 01:46:59;;;;;;;17.33;6.50;;;3.30;99.90;;;;;;5050437;28;20048;-88
2022/04/27 01:49:25;;;;;;;14.30;6.63;;;3.20;99.90;;;;;;5046356;28;20106;-88
2022/04/27 01:54:35;;;;;;;11.98;7.10;;;3.30;99.90;;;;;;5026498;28;20049;-88
2022/04/27 01:57:00;;;;;;;14.77;7.93;;;3.40;99.90;;;;;;5033381;28;20059;-87
2022/04/27 01:59:26;;;;;;;16.48;7.35;;;3.50;99.90;;;;;;5035859;28;20072;-88
2022/04/27 02:01:51;;;;;;;13.80;6.60;;;3.60;99.90;;;;;;5045771;28;20063;-88
2022/04/27 02:04:17;;;;;;;14.75;7.50;;;3.60;99.90;;;;;;5029326;28;20029;-89
2022/04/27 02:06:42;;;;;;;14.25;7.35;;;3.70;99.90;;;;;;5047098;28;20468;-88
2022/04/27 02:09:08;;;;;;;15.25;7.93;;;3.80;99.90;;;;;;5014041;28;20041;-88
2022/04/27 02:11:34;;;;;;;12.65;7.20;;;3.90;99.90;;;;;;5029601;28;20045;-88
2022/04/27 02:14:00;;;;;;;13.63;6.75;;;3.90;99.90;;;;;;5034515;28;20066;-88
2022/04/27 02:16:27;;;;;;;14.02;7.68;;;3.90;99.90;;;;;;5017163;28;20055;-88
2022/04/27 02:18:55;;;;;;;14.20;7.80;;;4.00;99.90;;;;;;5064823;28;20049;-88
2022/04/27 02:21:21;;;;;;;12.98;7.40;;;4.00;99.90;;;;;;5051446;28;20056;-88
2022/04/27 02:23:49;;;;;;;14.05;7.32;;;4.10;99.90;;;;;;5033992;28;20044;-88
2022/04/27 02:26:15;;;;;;;15.98;8.43;;;4.20;99.90;;;;;;5035418;28;20163;-88
2022/04/27 02:28:40;;;;;;;16.25;7.32;;;4.20;99.90;;;;;;5035802;28;20123;-88
2022/04/27 02:31:07;;;;;;;15.60;7.70;;;4.30;99.90;;;;;;5038085;28;20045;-88
2022/04/27 02:33:33;;;;;;;15.68;7.70;;;4.30;99.90;;;;;;5051484;28;20041;-88
2022/04/27 02:35:59;;;;;;;14.80;7.93;;;4.50;99.90;;;;;;5048948;28;20106;-88
2022/04/27 02:38:24;;;;;;;13.65;8.32;;;4.40;99.90;;;;;;5066089;28;20123;-88
2022/04/27 02:40:50;;;;;;;15.25;8.15;;;4.40;99.90;;;;;;5033545;28;20077;-87
2022/04/27 02:43:16;;;;;;;16.15;7.82;;;4.50;99.90;;;;;;5032909;28;20044;-88
2022/04/27 02:45:42;;;;;;;13.40;6.70;;;4.40;99.90;;;;;;5036424;28;20449;-88
2022/04/27 02:48:08;;;;;;;14.10;7.88;;;4.40;99.90;;;;;;5047100;28;20055;-88
2022/04/27 02:53:18;;;;;;;15.23;8.05;;;4.40;99.90;;;;;;5040361;28;20588;-90
2022/04/27 02:55:44;;;;;;;13.20;8.02;;;4.40;99.90;;;;;;5019756;28;20127;-89
2022/04/27 02:58:10;;;;;;;13.30;7.68;;;4.50;99.90;;;;;;5044227;28;20036;-88
2022/04/27 03:00:36;;;;;;;15.52;8.45;;;4.40;99.90;;;;;;5047676;28;20099;-88
2022/04/27 03:03:02;;;;;;;14.70;7.75;;;4.50;99.90;;;;;;5047891;28;20048;-88
2022/04/27 03:05:28;;;;;;;16.08;8.60;;;4.50;99.90;;;;;;5051770;28;20072;-88
2022/04/27 03:07:53;;;;;;;14.90;7.85;;;4.50;99.90;;;;;;5047695;28;20129;-89
2022/04/27 03:10:20;;;;;;;14.00;7.80;;;4.50;99.90;;;;;;5051241;28;20037;-89
2022/04/27 03:12:45;;;;;;;12.02;7.10;;;4.50;99.90;;;;;;5047664;28;20511;-89
2022/04/27 03:15:11;;;;;;;14.98;8.13;;;4.50;99.90;;;;;;5031478;28;20064;-89
2022/04/27 03:17:37;;;;;;;14.02;7.57;;;4.50;99.90;;;;;;5048716;28;20508;-89
2022/04/27 03:20:04;;;;;;;13.38;7.80;;;4.60;99.90;;;;;;5042949;28;20037;-90
2022/04/27 03:22:30;;;;;;;13.23;7.85;;;4.60;99.90;;;;;;5036405;28;20049;-90
2022/04/27 03:24:55;;;;;;;15.88;7.75;;;4.60;99.90;;;;;;5026841;28;20370;-90
2022/04/27 03:27:21;;;;;;;13.48;7.40;;;4.60;99.90;;;;;;5016822;28;20131;-89
2022/04/27 03:29:47;;;;;;;14.85;8.07;;;4.60;99.90;;;;;;5045835;28;20039;-90
2022/04/27 03:32:12;;;;;;;15.82;8.98;;;4.60;99.90;;;;;;5043062;28;20141;-90
2022/04/27 03:34:38;;;;;;;17.05;8.88;;;4.60;99.90;;;;;;5048388;28;20619;-89
2022/04/27 03:37:04;;;;;;;14.57;7.55;;;4.60;99.90;;;;;;5038096;28;20044;-89
2022/04/27 03:39:29;;;;;;;15.18;7.93;;;4.70;99.90;;;;;;5037863;28;20045;-89
2022/04/27 03:41:57;;;;;;;13.75;7.82;;;4.70;99.90;;;;;;5069969;28;20127;-89
2022/04/27 03:44:22;;;;;;;14.50;7.72;;;4.70;99.90;;;;;;5017074;28;20127;-89
2022/04/27 03:46:48;;;;;;;15.82;9.20;;;4.70;99.90;;;;;;5048007;28;20128;-89
2022/04/27 03:49:14;;;;;;;14.73;8.23;;;4.70;99.90;;;;;;5049941;28;20041;-89
2022/04/27 03:51:39;;;;;;;17.38;7.55;;;4.70;99.90;;;;;;5048881;28;20313;-89
2022/04/27 03:54:05;;;;;;;15.82;8.48;;;4.70;99.90;;;;;;5016921;28;20077;-88
2022/04/27 03:56:30;;;;;;;16.20;8.40;;;4.70;99.90;;;;;;5015851;28;20037;-89
2022/04/27 03:58:57;;;;;;;14.68;7.80;;;4.80;99.90;;;;;;5032730;28;20444;-89
2022/04/27 04:01:23;;;;;;;15.02;7.75;;;4.80;99.90;;;;;;5034683;28;20076;-89
2022/04/27 04:03:48;;;;;;;14.63;8.60;;;4.80;99.90;;;;;;5050691;28;20091;-89
2022/04/27 04:06:14;;;;;;;17.05;8.80;;;4.80;99.90;;;;;;5050459;28;20041;-89
2022/04/27 04:08:40;;;;;;;15.85;7.97;;;4.80;99.90;;;;;;5050209;28;20036;-89
2022/04/27 04:11:05;;;;;;;16.73;7.65;;;4.80;99.90;;;;;;5046735;28;20393;-87
2022/04/27 04:13:31;;;;;;;15.63;8.50;;;4.80;99.90;;;;;;5034539;28;20045;-87
2022/04/27 04:15:56;;;;;;;14.75;8.27;;;4.90;99.90;;;;;;5051546;28;20544;-87
2022/04/27 04:18:22;;;;;;;15.07;8.80;;;4.90;99.90;;;;;;5066872;28;20041;-87
2022/04/27 04:20:47;;;;;;;12.85;9.30;;;4.90;99.90;;;;;;5052818;28;20037;-87
2022/04/27 04:23:13;;;;;;;15.73;9.00;;;5.00;99.90;;;;;;5028625;28;20515;-86
2022/04/27 04:28:31;;;;;;;15.80;8.98;;;5.00;99.90;;;;;;5034689;28;20494;-87
2022/04/27 04:31:05;;;;;;;15.60;8.18;;;5.00;99.90;;;;;;5048111;28;20423;-87
2022/04/27 04:33:31;;;;;;;14.75;8.48;;;5.00;99.90;;;;;;5041307;28;20131;-87
2022/04/27 04:35:57;;;;;;;16.13;8.60;;;5.10;99.90;;;;;;5015274;28;20084;-94
2022/04/27 04:38:23;;;;;;;16.95;9.57;;;5.10;99.90;;;;;;5019927;28;20041;-92
2022/04/27 04:40:49;;;;;;;16.13;9.07;;;5.10;99.90;;;;;;5016698;28;20044;-91
2022/04/27 04:43:15;;;;;;;16.75;8.40;;;5.20;99.90;;;;;;5005580;28;20327;-92
2022/04/27 04:45:41;;;;;;;17.85;10.10;;;5.20;99.90;;;;;;5033459;28;20047;-91
2022/04/27 04:48:08;;;;;;;13.82;9.27;;;5.20;99.90;;;;;;5050844;28;20440;-91
2022/04/27 04:50:35;;;;;;;17.33;9.70;;;5.30;99.90;;;;;;5033266;28;20072;-91
2022/04/27 04:53:00;;;;;;;16.25;8.80;;;5.30;99.90;;;;;;5047222;28;20049;-91
2022/04/27 04:55:26;;;;;;;15.73;9.77;;;5.40;99.90;;;;;;5017361;28;20052;-86
2022/04/27 04:57:52;;;;;;;14.90;8.35;;;5.40;99.90;;;;;;5007642;28;20041;-92
2022/04/27 05:00:18;;;;;;;13.40;8.55;;;5.50;99.90;;;;;;5048722;28;20044;-92
2022/04/27 05:02:44;;;;;;;20.52;10.82;;;5.50;99.90;;;;;;5033742;28;20045;-93
2022/04/27 05:05:10;;;;;;;20.60;9.52;;;5.60;99.90;;;;;;5043911;28;20531;-92
2022/04/27 05:07:36;;;;;;;17.55;9.77;;;5.60;99.90;;;;;;5019827;28;20041;-86
2022/04/27 05:10:02;;;;;;;15.82;9.88;;;5.60;99.90;;;;;;5029920;28;20052;-88
2022/04/27 05:12:29;;;;;;;17.98;10.00;;;5.70;99.90;;;;;;5038225;28;20045;-86
2022/04/27 05:14:55;;;;;;;16.48;9.38;;;5.70;99.90;;;;;;5029388;28;20040;-87
2022/04/27 05:17:22;;;;;;;14.75;7.57;;;5.80;99.90;;;;;;5049007;28;20043;-87
2022/04/27 05:19:49;;;;;;;17.70;10.75;;;5.90;99.90;;;;;;5030018;28;20417;-87
2022/04/27 05:22:15;;;;;;;17.10;9.38;;;5.90;99.90;;;;;;5036215;28;20039;-88
2022/04/27 05:24:40;;;;;;;17.88;8.93;;;6.00;99.90;;;;;;5029461;28;20116;-90
2022/04/27 05:27:06;;;;;;;16.67;8.98;;;6.00;99.90;;;;;;5031954;28;20041;-89
2022/04/27 05:32:15;;;;;;;16.15;9.18;;;6.10;99.90;;;;;;5053015;28;20049;-89
2022/04/27 05:34:41;;;;;;;16.17;9.23;;;6.20;99.90;;;;;;5016322;28;20048;-94
2022/04/27 05:37:07;;;;;;;14.23;7.65;;;6.30;99.90;;;;;;5070539;28;20093;-94
2022/04/27 05:39:32;;;;;;;13.57;12.18;;;6.30;99.90;;;;;;5075724;28;20460;-96
2022/04/27 05:41:58;;;;;;;14.68;8.68;;;6.40;99.90;;;;;;5052536;28;20095;-92
2022/04/27 05:44:25;;;;;;;13.00;7.82;;;6.50;99.90;;;;;;5050941;28;20052;-93
2022/04/27 05:46:55;;;;;;;12.93;7.47;;;6.50;99.90;;;;;;5035441;28;20076;-94
2022/04/27 05:49:21;;;;;;;13.05;7.05;;;6.60;99.90;;;;;;5023102;28;20545;-95
2022/04/27 05:51:47;;;;;;;14.85;9.32;;;6.60;99.90;;;;;;5035041;28;20041;-94
2022/04/27 05:54:14;;;;;;;16.27;9.65;;;6.60;99.90;;;;;;5039282;28;20055;-92
2022/04/27 05:56:41;;;;;;;14.85;9.60;;;6.70;99.90;;;;;;5032556;28;20447;-93
2022/04/27 05:59:08;;;;;;;17.48;9.88;;;6.70;99.90;;;;;;5048555;28;20036;-93
2022/04/27 06:01:33;;;;;;;14.35;8.85;;;6.80;99.90;;;;;;5048707;28;20520;-94
2022/04/27 06:03:59;;;;;;;15.95;9.48;;;6.90;99.90;;;;;;5069371;28;20041;-94
2022/04/27 06:06:25;;;;;;;15.35;9.20;;;6.90;99.90;;;;;;5043585;28;20465;-88
2022/04/27 06:08:51;;;;;;;14.55;11.70;;;7.00;99.90;;;;;;5028745;28;20098;-89
2022/04/27 06:11:17;;;;;;;13.32;8.98;;;7.10;99.90;;;;;;5039966;28;20030;-91
2022/04/27 06:13:43;;;;;;;13.23;9.40;;;7.10;99.90;;;;;;5049730;28;20127;-93
2022/04/27 06:16:10;;;;;;;15.82;8.65;;;7.20;99.90;;;;;;5050035;28;20120;-94
2022/04/27 06:18:35;;;;;;;14.70;9.55;;;7.20;99.90;;;;;;5015817;28;20131;-91
2022/04/27 06:21:01;;;;;;;12.40;8.40;;;7.20;99.90;;;;;;5049687;28;20375;-96
2022/04/27 06:23:27;;;;;;;14.10;8.32;;;7.30;99.90;;;;;;5033764;28;20056;-93
2022/04/27 06:25:53;;;;;;;15.30;10.13;;;7.40;99.90;;;;;;5049316;28;20041;-95
2022/04/27 06:28:19;;;;;;;14.73;11.80;;;7.40;99.90;;;;;;5034619;28;20053;-95
2022/04/27 06:30:45;;;;;;;14.05;8.30;;;7.50;99.90;;;;;;5038903;28;20053;-92
2022/04/27 06:33:10;;;;;;;14.65;11.38;;;7.50;99.90;;;;;;5030345;28;20390;-88
2022/04/27 06:35:37;;;;;;;13.70;10.80;;;7.60;99.90;;;;;;5040944;28;20057;-86
2022/04/27 06:38:03;;;;;;;12.18;10.52;;;7.70;99.90;;;;;;5060974;28;20389;-84
2022/04/27 06:40:28;;;;;;;12.95;7.47;;;7.80;99.90;;;;;;5043485;28;20048;-85
2022/04/27 06:42:56;;;;;;;15.02;10.30;;;7.80;99.90;;;;;;5046785;28;20037;-86
2022/04/27 06:45:25;;;;;;;13.60;7.95;;;7.90;99.90;;;;;;5043696;28;20099;-86
2022/04/27 06:47:51;;;;;;;13.82;7.53;;;8.00;99.90;;;;;;5047019;28;20124;-92
2022/04/27 06:50:17;;;;;;;13.80;10.25;;;8.00;99.90;;;;;;5047626;28;20132;-89
2022/04/27 06:52:45;;;;;;;13.27;9.57;;;8.10;99.90;;;;;;5029999;28;20473;-90
2022/04/27 06:55:11;;;;;;;14.73;10.23;;;8.20;99.90;;;;;;5033239;28;20037;-93
2022/04/27 06:57:37;;;;;;;15.10;9.43;;;8.30;99.90;;;;;;5064991;28;20044;-88
2022/04/27 07:00:04;;;;;;;12.07;8.40;;;8.40;99.90;;;;;;5046945;28;20052;-88
2022/04/27 07:02:30;;;;;;;12.40;8.20;;;8.50;99.90;;;;;;5062491;28;20216;-90
2022/04/27 07:05:01;;;;;;;10.95;7.25;;;8.50;99.90;;;;;;5037512;28;20045;-91
2022/04/27 07:07:30;;;;;;;14.27;8.32;;;8.50;99.90;;;;;;5074369;28;20068;-89
2022/04/27 07:09:56;;;;;;;11.18;7.55;;;8.60;99.90;;;;;;5061197;28;20098;-91
2022/04/27 07:12:22;;;;;;;11.30;7.82;;;8.80;99.90;;;;;;5053406;28;20040;-90
2022/04/27 07:14:48;;;;;;;12.20;7.88;;;8.80;99.90;;;;;;5050711;28;20087;-89
2022/04/27 07:17:14;;;;;;;10.88;7.68;;;8.90;99.90;;;;;;5049168;28;20116;-90
2022/04/27 07:19:40;;;;;;;12.45;7.10;;;8.90;99.90;;;;;;5033786;28;21817;-90
2022/04/27 07:22:06;;;;;;;12.63;6.45;;;9.00;99.90;;;;;;5051371;28;20120;-91
2022/04/27 07:24:36;;;;;;;11.93;7.70;;;9.10;99.90;;;;;;5040929;28;20037;-90
2022/04/27 07:27:01;;;;;;;14.10;8.60;;;9.20;99.90;;;;;;5041351;28;20339;-90
2022/04/27 07:29:27;;;;;;;14.00;8.27;;;9.30;99.90;;;;;;5046279;28;20041;-90
2022/04/27 07:31:53;;;;;;;11.75;7.82;;;9.40;99.90;;;;;;5050583;28;20036;-90
2022/04/27 07:34:18;;;;;;;12.35;7.82;;;9.40;99.90;;;;;;5061748;28;20060;-90
2022/04/27 07:36:44;;;;;;;11.60;7.20;;;9.50;99.90;;;;;;5049423;28;20057;-89
2022/04/27 07:39:10;;;;;;;12.43;6.78;;;9.50;99.90;;;;;;5024464;28;20125;-91
2022/04/27 07:41:36;;;;;;;9.18;5.95;;;9.60;99.90;;;;;;5048534;28;20047;-91
2022/04/27 07:44:02;;;;;;;7.50;4.88;;;9.60;99.90;;;;;;5049455;28;20094;-91
2022/04/27 07:46:28;;;;;;;9.45;4.82;;;9.70;99.90;;;;;;5034448;28;20107;-90
2022/04/27 07:48:54;;;;;;;9.43;4.95;;;9.70;99.90;;;;;;5033229;28;20045;-91
2022/04/27 07:51:20;;;;;;;10.20;5.72;;;9.80;99.90;;;;;;5049921;28;20049;-90
2022/04/27 07:53:46;;;;;;;8.63;5.15;;;9.90;99.90;;;;;;5019166;28;20086;-88
2022/04/27 07:56:11;;;;;;;8.68;5.38;;;9.90;99.90;;;;;;5053904;28;20480;-88
2022/04/27 07:58:37;;;;;;;9.13;5.70;;;10.00;99.90;;;;;;5037060;28;20405;-93
2022/04/27 08:01:03;;;;;;;10.38;5.85;;;10.10;99.90;;;;;;5033646;28;20051;-93
2022/04/27 08:03:29;;;;;;;8.48;5.40;;;10.20;99.90;;;;;;5029335;28;20041;-90
2022/04/27 08:05:55;;;;;;;7.78;4.00;;;10.30;99.90;;;;;;5051448;28;20056;-95
2022/04/27 08:10:56;;;;;;;6.70;2.85;;;10.40;99.90;;;;;;5353857;22;20060;-96
2022/04/27 08:13:24;;;;;;;5.63;2.78;;;10.50;99.90;;;;;;5166495;22;20067;-85
2022/04/27 08:15:50;;;;;;;7.90;3.15;;;10.60;99.90;;;;;;5309725;22;20053;-94
2022/04/27 08:46:12;;;;;;;6.10;2.80;;;11.40;99.90;;;;;;1780460;22;20249;-94
2022/04/27 08:51:13;;;;;;;7.32;2.58;;;11.40;99.90;;;;;;5052022;28;20037;-95
2022/04/27 08:53:39;;;;;;;5.50;3.05;;;11.40;99.90;;;;;;5037893;28;20053;-93
2022/04/27 08:56:05;;;;;;;5.53;2.70;;;11.40;99.90;;;;;;5012812;28;20049;-95
2022/04/27 08:58:30;;;;;;;6.18;2.72;;;11.50;99.90;;;;;;5032113;28;20053;-92
2022/04/27 09:00:59;;;;;;;6.93;2.42;;;11.60;99.90;;;;;;5035167;28;20037;-95
2022/04/27 09:03:25;;;;;;;11.23;7.25;;;11.60;99.20;;;;;;5035858;28;20088;-93
2022/04/27 09:06:02;;;;;;;7.03;2.92;;;11.70;99.10;;;;;;5026143;28;20457;-90
2022/04/27 09:08:56;;;;;;;5.40;2.20;;;11.70;98.60;;;;;;4989333;28;20069;-93
2022/04/27 09:11:27;;;;;;;5.05;2.55;;;11.80;97.70;;;;;;5042273;28;20068;-96
2022/04/27 09:13:55;;;;;;;;;;;11.80;96.30;;;;;;5063958;28;20068;-94
2022/04/27 09:16:27;;;;;;;6.68;3.20;;;11.80;97.60;;;;;;5096253;22;19972;-95
2022/04/27 09:24:51;;;;;;;6.22;2.70;;;12.00;95.70;;;;;;5026118;28;20038;-95
2022/04/27 09:27:18;;;;;;;6.97;2.97;;;12.10;95.50;;;;;;5003336;28;20041;-93
2022/04/27 09:29:55;;;;;;;6.80;3.10;;;12.10;94.10;;;;;;5029237;28;20041;-94
2022/04/27 09:32:21;;;;;;;6.70;2.28;;;12.20;94.70;;;;;;5006237;28;20045;-93
2022/04/27 09:34:49;;;;;;;9.45;2.67;;;12.30;93.80;;;;;;5023353;28;20144;-93
2022/04/27 09:37:20;;;;;;;5.93;2.10;;;12.20;93.40;;;;;;5012464;28;20097;-95
2022/04/27 09:39:59;;;;;;;6.38;2.60;;;12.20;92.10;;;;;;5030222;28;20470;-94
2022/04/27 09:42:36;;;;;;;7.13;2.50;;;12.30;92.90;;;;;;5006489;28;20046;-96
2022/04/27 09:45:24;;;;;;;8.65;2.70;;;12.40;94.10;;;;;;4993398;28;20076;-95
2022/04/27 09:48:00;;;;;;;7.45;2.63;;;12.50;92.10;;;;;;5001463;28;20024;-94
2022/04/27 09:50:26;;;;;;;8.15;2.60;;;12.50;93.60;;;;;;5033316;28;20062;-94
2022/04/27 09:52:55;;;;;;;6.20;2.63;;;12.50;92.30;;;;;;4999492;28;20101;-93
2022/04/27 09:55:23;;;;;;;6.15;2.30;;;12.60;91.90;;;;;;5027847;28;20038;-91
2022/04/27 09:57:58;;;;;;;7.38;2.30;;;12.70;92.80;;;;;;5026489;28;20046;-93
2022/04/27 10:00:25;;;;;;;4.45;2.35;;;12.80;91.90;;;;;;5012037;28;20129;-93
2022/04/27 10:02:52;;;;;;;5.63;2.72;;;13.00;92.80;;;;;;5011348;28;20592;-94
2022/04/27 10:05:17;;;;;;;7.35;2.63;;;13.10;93.00;;;;;;5007784;28;20038;-91
2022/04/27 10:07:44;;;;;;;6.45;2.55;;;13.20;92.40;;;;;;4976512;28;20056;-93
2022/04/27 10:10:10;;;;;;;7.28;2.78;;;13.30;91.90;;;;;;5009568;28;20049;-91
2022/04/27 10:12:38;;;;;;;6.28;2.40;;;13.30;91.90;;;;;;5008291;28;20045;-89
2022/04/27 10:15:05;;;;;;;6.53;2.58;;;13.30;90.00;;;;;;5007556;28;20086;-90
2022/04/27 10:17:32;;;;;;;8.60;2.97;;;13.20;88.70;;;;;;5009204;28;20046;-88
2022/04/27 10:19:57;;;;;;;7.50;2.65;;;13.10;87.40;;;;;;5006342;28;20566;-91
2022/04/27 10:22:27;;;;;;;7.70;2.38;;;13.10;86.70;;;;;;5007213;28;20068;-89
2022/04/27 10:24:55;;;;;;;7.63;2.40;;;13.00;85.00;;;;;;5006907;28;20060;-89
2022/04/27 10:27:40;;;;;;;6.20;2.55;;;12.90;84.20;;;;;;5009222;28;20428;-91
2022/04/27 10:30:10;;;;;;;5.60;2.22;;;12.90;87.40;;;;;;5007099;28;20495;-89
2022/04/27 10:32:37;;;;;;;8.10;2.70;;;13.00;90.00;;;;;;4989592;28;20095;-88
2022/04/27 10:35:11;;;;;;;6.20;2.72;;;13.10;88.70;;;;;;5011958;28;20494;-91
2022/04/27 10:37:57;;;;;;;6.65;2.20;;;13.10;85.30;;;;;;4995763;28;20398;-88
2022/04/27 10:40:25;;;;;;;6.95;2.45;;;13.00;82.70;;;;;;5012611;28;20048;-92
2022/04/27 10:42:51;;;;;;;6.00;2.20;;;13.00;85.80;;;;;;4981866;28;20046;-90
2022/04/27 10:45:23;;;;;;;8.88;2.40;;;13.00;84.90;;;;;;5012528;28;20053;-90
2022/04/27 10:47:49;;;;;;;7.13;2.47;;;13.00;84.50;;;;;;5010630;28;20061;-94
2022/04/27 10:50:14;;;;;;;7.15;2.58;;;13.00;83.70;;;;;;4995611;28;20037;-88
2022/04/27 10:53:14;;;;;;;7.47;3.17;;;13.00;82.50;;;;;;4994962;28;20437;-89
2022/04/27 10:55:41;;;;;;;7.18;2.30;;;13.10;82.70;;;;;;4993544;28;20498;-87
2022/04/27 10:58:17;;;;;;;9.07;2.92;;;13.00;82.20;;;;;;5011025;28;20042;-89
2022/04/27 11:01:11;;;;;;;7.18;2.72;;;13.10;81.40;;;;;;5007348;28;20077;-89
2022/04/27 11:03:38;;;;;;;6.82;2.80;;;13.10;78.80;;;;;;5008671;28;20054;-89
2022/04/27 11:06:07;;;;;;;7.63;2.70;;;13.20;83.70;;;;;;4993553;28;20049;-92
2022/04/27 11:08:36;;;;;;;7.60;2.50;;;13.30;81.90;;;;;;4987731;28;20053;-88
2022/04/27 11:11:06;;;;;;;6.20;2.78;;;13.30;80.20;;;;;;4978185;28;20807;-91
2022/04/27 11:13:34;;;;;;;8.57;2.90;;;13.40;81.10;;;;;;4993948;28;20085;-87
2022/04/27 11:16:13;;;;;;;11.25;2.63;;;13.50;80.50;;;;;;4976723;28;20042;-88
2022/04/27 11:18:55;;;;;;;8.77;3.05;;;13.50;78.30;;;;;;4992719;28;20565;-87
2022/04/27 11:21:22;;;;;;;7.13;2.80;;;13.60;77.30;;;;;;4982708;28;20077;-90
2022/04/27 11:23:48;;;;;;;7.53;3.05;;;13.50;78.30;;;;;;5001776;28;20054;-89
2022/04/27 11:26:14;;;;;;;7.40;2.92;;;13.50;79.50;;;;;;5002168;28;20134;-88
2022/04/27 11:28:45;;;;;;;10.32;5.05;;;13.40;78.40;;;;;;4991454;28;20092;-85
2022/04/27 11:31:12;;;;;;;5.78;2.50;;;13.40;79.90;;;;;;4988906;28;20100;-86
2022/04/27 11:33:41;;;;;;;7.22;2.88;;;13.50;79.00;;;;;;4991695;28;20046;-85
2022/04/27 11:36:20;;;;;;;7.30;2.95;;;13.50;80.60;;;;;;4984973;28;20057;-87
2022/04/27 11:38:46;;;;;;;7.40;3.00;;;13.70;81.70;;;;;;4991282;28;20046;-87
2022/04/27 11:41:20;;;;;;;8.77;2.80;;;13.90;81.70;;;;;;5007771;28;20125;-86
2022/04/27 11:43:47;;;;;;;7.57;2.75;;;14.10;78.60;;;;;;4973869;28;20041;-87
2022/04/27 11:46:13;;;;;;;6.93;2.70;;;14.00;76.90;;;;;;4988754;28;20045;-87
2022/04/27 11:48:39;;;;;;;6.70;2.72;;;13.90;75.60;;;;;;4989895;28;20045;-87
2022/04/27 11:51:06;;;;;;;6.43;2.50;;;13.90;75.30;;;;;;4990519;28;20073;-86
2022/04/27 11:53:47;;;;;;;6.63;2.50;;;13.90;77.40;;;;;;5014536;28;20102;-88
2022/04/27 11:56:17;;;;;;;8.77;2.75;;;14.00;73.80;;;;;;4992293;28;20049;-87
2022/04/27 11:58:46;;;;;;;6.80;3.00;;;14.20;76.50;;;;;;4991029;28;20053;-87
2022/04/27 12:01:22;;;;;;;6.85;2.60;;;14.40;75.40;;;;;;4988694;28;20037;-87
2022/04/27 12:03:51;;;;;;;7.13;3.13;;;14.40;73.60;;;;;;5006773;28;20049;-86
2022/04/27 12:06:18;;;;;;;6.95;3.20;;;14.20;72.50;;;;;;4991017;28;20049;-87
2022/04/27 12:08:43;;;;;;;6.30;2.78;;;14.20;73.90;;;;;;4987299;28;20132;-87
2022/04/27 12:11:09;;;;;;;8.50;2.83;;;14.20;74.30;;;;;;5006442;28;20132;-87
2022/04/27 12:13:35;;;;;;;8.75;2.90;;;14.40;76.40;;;;;;4990563;28;21000;-87
2022/04/27 12:16:01;;;;;;;6.85;3.20;;;14.60;76.30;;;;;;4987099;28;20046;-87
2022/04/27 12:18:31;;;;;;;5.78;2.78;;;14.50;71.80;;;;;;4978324;28;20084;-86
2022/04/27 12:20:58;;;;;;;7.33;3.20;;;14.40;72.40;;;;;;5007846;28;20121;-87
2022/04/27 12:23:29;;;;;;;7.30;3.00;;;14.30;71.50;;;;;;5007562;28;20073;-86
2022/04/27 12:25:57;;;;;;;7.32;3.35;;;14.10;71.60;;;;;;5008369;28;20050;-86
2022/04/27 12:28:27;;;;;;;7.15;3.20;;;14.20;73.60;;;;;;5005900;28;20129;-87
2022/04/27 12:31:02;;;;;;;7.00;3.20;;;14.20;72.50;;;;;;5009822;28;20049;-89
2022/04/27 12:33:42;;;;;;;8.57;3.97;;;14.10;72.30;;;;;;4993602;28;20467;-86
2022/04/27 12:39:04;;;;;;;9.25;3.88;;;14.20;74.50;;;;;;5014049;28;20054;-86
2022/04/27 12:41:32;;;;;;;8.15;3.65;;;14.30;74.80;;;;;;5011931;28;20049;-87
2022/04/27 12:44:02;;;;;;;8.30;3.47;;;14.20;74.20;;;;;;4998419;28;20052;-88
2022/04/27 12:46:28;;;;;;;9.15;3.60;;;14.10;75.90;;;;;;5000707;28;20534;-87
2022/04/27 12:49:07;;;;;;;9.60;3.42;;;14.10;77.20;;;;;;4993165;28;20133;-86
2022/04/27 12:51:35;;;;;;;8.00;3.78;;;14.00;76.60;;;;;;4992916;28;20042;-86
2022/04/27 12:54:02;;;;;;;9.13;4.10;;;13.90;76.90;;;;;;4975922;28;20048;-86
2022/04/27 12:56:34;;;;;;;13.10;4.10;;;13.80;77.20;;;;;;4972568;28;20200;-87
2022/04/27 12:59:03;;;;;;;;;;;13.70;78.00;;;;;;4972686;28;20050;-87
2022/04/27 13:01:29;;;;;;;9.30;3.65;;;13.80;81.30;;;;;;4991175;28;20336;-87
2022/04/27 13:03:55;;;;;;;9.70;3.35;;;14.00;78.90;;;;;;4993109;28;20092;-88
2022/04/27 13:06:22;;;;;;;9.02;3.47;;;14.00;77.40;;;;;;4975532;28;20112;-86
2022/04/27 13:08:49;;;;;;;9.40;3.60;;;14.10;75.40;;;;;;4973526;28;20054;-88
2022/04/27 13:13:58;;;;;;;7.53;3.40;;;14.00;74.50;;;;;;4990358;28;20050;-89
2022/04/27 13:16:25;;;;;;;10.23;4.05;;;14.00;74.20;;;;;;4973398;28;20050;-88
2022/04/27 13:18:50;;;;;;;7.97;3.58;;;14.00;77.50;;;;;;4993543;28;20050;-88
2022/04/27 13:21:16;;;;;;;9.70;3.53;;;14.10;78.80;;;;;;4992754;28;20053;-87
2022/04/27 13:23:42;;;;;;;8.32;3.45;;;14.20;78.20;;;;;;4990554;28;20052;-87
2022/04/27 13:26:08;;;;;;;8.60;3.65;;;14.20;79.10;;;;;;4972757;28;20549;-87
2022/04/27 13:28:35;;;;;;;8.10;3.22;;;14.20;77.10;;;;;;4957171;28;20050;-88
2022/04/27 13:31:02;;;;;;;8.43;3.20;;;14.20;76.50;;;;;;4972722;28;20098;-87
2022/04/27 13:33:28;;;;;;;8.07;3.30;;;14.10;77.30;;;;;;4973371;28;20043;-86
2022/04/27 13:35:54;;;;;;;8.50;3.60;;;14.20;79.00;;;;;;4972990;28;20038;-87
2022/04/27 13:38:19;;;;;;;8.93;3.78;;;14.20;79.00;;;;;;4971714;28;20476;-88
2022/04/27 13:40:46;;;;;;;9.60;3.13;;;14.30;80.20;;;;;;4985557;28;20061;-89
2022/04/27 13:43:12;;;;;;;10.25;3.30;;;14.20;79.40;;;;;;4971338;28;20046;-88
2022/04/27 13:45:38;;;;;;;9.57;3.35;;;14.20;80.80;;;;;;4988813;28;20061;-88